sensor_id;sensor_type;location;lat;lon;timestamp;pressure;altitude;pressure_sealevel;temperature;humidity
8637;BME280;4356;49.068;8.658;2022-12-29T00:01:35;99350.50;;;16.97;39.35
8637;BME280;4356;49.068;8.658;2022-12-29T00:04:01;99363.22;;;16.97;39.68
8637;BME280;4356;49.068;8.658;2022-12-29T00:06:27;99357.56;;;16.98;39.46
8637;BME280;4356;49.068;8.658;2022-12-29T00:08:53;99361.13;;;16.99;39.28
8637;BME280;4356;49.068;8.658;2022-12-29T00:11:21;99363.00;;;16.98;39.46
8637;BME280;4356;49.068;8.658;2022-12-29T00:13:48;99361.13;;;16.99;39.41
8637;BME280;4356;49.068;8.658;2022-12-29T00:16:33;99351.75;;;16.95;39.43
8637;BME280;4356;49.068;8.658;2022-12-29T00:18:59;99357.78;;;16.97;39.49
8637;BME280;4356;49.068;8.658;2022-12-29T00:21:25;99352.00;;;16.93;39.27
8637;BME280;4356;49.068;8.658;2022-12-29T00:24:15;99356.13;;;16.96;39.72
8637;BME280;4356;49.068;8.658;2022-12-29T00:29:39;99355.53;;;16.94;39.61
8637;BME280;4356;49.068;8.658;2022-12-29T00:32:23;99360.75;;;16.95;39.43
8637;BME280;4356;49.068;8.658;2022-12-29T00:35:10;99353.41;;;16.96;39.66
8637;BME280;4356;49.068;8.658;2022-12-29T00:37:44;99368.66;;;16.97;39.75
8637;BME280;4356;49.068;8.658;2022-12-29T00:40:30;99361.34;;;16.97;39.57
8637;BME280;4356;49.068;8.658;2022-12-29T00:43:14;99374.91;;;16.97;39.65
8637;BME280;4356;49.068;8.658;2022-12-29T00:45:58;99363.22;;;16.97;39.49
8637;BME280;4356;49.068;8.658;2022-12-29T00:48:23;99369.50;;;16.97;39.59
8637;BME280;4356;49.068;8.658;2022-12-29T00:51:08;99384.09;;;16.96;39.51
8637;BME280;4356;49.068;8.658;2022-12-29T00:53:34;99380.34;;;16.97;39.51
8637;BME280;4356;49.068;8.658;2022-12-29T00:56:00;99370.53;;;16.96;39.72
8637;BME280;4356;49.068;8.658;2022-12-29T00:58:30;99381.16;;;16.98;39.45
8637;BME280;4356;49.068;8.658;2022-12-29T01:01:03;99383.25;;;16.96;39.82
8637;BME280;4356;49.068;8.658;2022-12-29T01:03:29;99380.53;;;16.96;39.73
8637;BME280;4356;49.068;8.658;2022-12-29T01:05:56;99382.22;;;16.97;39.59
8637;BME280;4356;49.068;8.658;2022-12-29T01:08:22;99390.81;;;16.94;39.54
8637;BME280;4356;49.068;8.658;2022-12-29T01:11:00;99383.72;;;16.93;39.98
8637;BME280;4356;49.068;8.658;2022-12-29T01:13:27;99390.81;;;16.94;40.00
8637;BME280;4356;49.068;8.658;2022-12-29T01:15:53;99385.81;;;16.91;39.64
8637;BME280;4356;49.068;8.658;2022-12-29T01:18:20;99400.38;;;16.96;39.87
8637;BME280;4356;49.068;8.658;2022-12-29T01:20:46;99405.59;;;16.98;40.06
8637;BME280;4356;49.068;8.658;2022-12-29T01:23:12;99395.19;;;16.95;40.16
8637;BME280;4356;49.068;8.658;2022-12-29T01:25:38;99406.41;;;16.98;40.18
8637;BME280;4356;49.068;8.658;2022-12-29T01:28:03;99403.47;;;17.00;39.93
8637;BME280;4356;49.068;8.658;2022-12-29T01:30:29;99377.69;;;16.91;40.05
8637;BME280;4356;49.068;8.658;2022-12-29T01:32:55;99389.28;;;16.98;40.01
8637;BME280;4356;49.068;8.658;2022-12-29T01:35:20;99382.59;;;17.00;40.24
8637;BME280;4356;49.068;8.658;2022-12-29T01:37:46;99385.09;;;17.02;40.10
8637;BME280;4356;49.068;8.658;2022-12-29T01:40:12;99360.59;;;16.90;40.18
8637;BME280;4356;49.068;8.658;2022-12-29T01:42:38;99375.72;;;16.98;40.27
8637;BME280;4356;49.068;8.658;2022-12-29T01:45:14;99372.19;;;16.97;40.54
8637;BME280;4356;49.068;8.658;2022-12-29T01:47:49;99366.78;;;16.97;39.97
8637;BME280;4356;49.068;8.658;2022-12-29T01:50:36;99375.28;;;17.01;39.99
8637;BME280;4356;49.068;8.658;2022-12-29T01:53:08;99375.72;;;16.98;40.43
8637;BME280;4356;49.068;8.658;2022-12-29T01:56:03;99368.19;;;17.00;40.42
8637;BME280;4356;49.068;8.658;2022-12-29T01:58:33;99374.47;;;17.00;40.37
8637;BME280;4356;49.068;8.658;2022-12-29T02:01:00;99377.41;;;16.99;40.09
8637;BME280;4356;49.068;8.658;2022-12-29T02:03:27;99375.97;;;16.96;39.87
8637;BME280;4356;49.068;8.658;2022-12-29T02:06:02;99374.06;;;16.97;40.36
8637;BME280;4356;49.068;8.658;2022-12-29T02:08:30;99366.16;;;16.95;40.29
8637;BME280;4356;49.068;8.658;2022-12-29T02:10:56;99361.78;;;16.94;40.13
8637;BME280;4356;49.068;8.658;2022-12-29T02:13:27;99371.75;;;17.00;40.25
8637;BME280;4356;49.068;8.658;2022-12-29T02:33:09;99353.03;;;16.92;40.22
8637;BME280;4356;49.068;8.658;2022-12-29T02:36:01;99356.34;;;16.94;40.16
8637;BME280;4356;49.068;8.658;2022-12-29T02:44:36;99355.53;;;16.94;40.15
8637;BME280;4356;49.068;8.658;2022-12-29T02:47:10;99344.88;;;16.92;40.06
8637;BME280;4356;49.068;8.658;2022-12-29T02:49:48;99341.78;;;16.89;40.22
8637;BME280;4356;49.068;8.658;2022-12-29T02:52:24;99340.75;;;16.90;40.27
8637;BME280;4356;49.068;8.658;2022-12-29T02:54:55;99343.47;;;16.90;40.08
8637;BME280;4356;49.068;8.658;2022-12-29T02:59:50;99346.78;;;16.92;40.38
8637;BME280;4356;49.068;8.658;2022-12-29T03:05:17;99325.06;;;16.92;40.27
8637;BME280;4356;49.068;8.658;2022-12-29T03:10:50;99327.19;;;16.90;40.22
8637;BME280;4356;49.068;8.658;2022-12-29T03:13:25;99329.66;;;16.91;40.09
8637;BME280;4356;49.068;8.658;2022-12-29T03:21:22;99315.50;;;16.89;40.13
8637;BME280;4356;49.068;8.658;2022-12-29T03:24:10;99307.56;;;16.88;40.37
8637;BME280;4356;49.068;8.658;2022-12-29T03:26:37;99325.97;;;16.86;40.46
8637;BME280;4356;49.068;8.658;2022-12-29T03:29:05;99320.91;;;16.89;40.30
8637;BME280;4356;49.068;8.658;2022-12-29T03:31:34;99326.34;;;16.89;40.37
8637;BME280;4356;49.068;8.658;2022-12-29T03:34:01;99313.00;;;16.88;40.14
8637;BME280;4356;49.068;8.658;2022-12-29T03:36:52;99298.00;;;16.85;40.62
8637;BME280;4356;49.068;8.658;2022-12-29T03:39:21;99295.03;;;16.87;40.25
8637;BME280;4356;49.068;8.658;2022-12-29T03:41:50;99292.34;;;16.87;40.52
8637;BME280;4356;49.068;8.658;2022-12-29T03:44:18;99296.72;;;16.88;40.19
8637;BME280;4356;49.068;8.658;2022-12-29T03:46:43;99303.00;;;16.88;40.25
8637;BME280;4356;49.068;8.658;2022-12-29T03:49:09;99286.91;;;16.87;40.27
8637;BME280;4356;49.068;8.658;2022-12-29T03:51:35;99291.06;;;16.89;40.49
8637;BME280;4356;49.068;8.658;2022-12-29T03:54:00;99277.34;;;16.84;40.24
8637;BME280;4356;49.068;8.658;2022-12-29T03:56:26;99286.72;;;16.88;40.10
8637;BME280;4356;49.068;8.658;2022-12-29T03:58:52;99269.34;;;16.89;40.48
8637;BME280;4356;49.068;8.658;2022-12-29T04:01:17;99265.44;;;16.85;40.15
8637;BME280;4356;49.068;8.658;2022-12-29T04:03:43;99259.41;;;16.83;40.06
8637;BME280;4356;49.068;8.658;2022-12-29T04:06:09;99262.47;;;16.87;40.15
8637;BME280;4356;49.068;8.658;2022-12-29T04:08:35;99261.06;;;16.84;40.21
8637;BME280;4356;49.068;8.658;2022-12-29T04:11:00;99258.97;;;16.86;40.30
8637;BME280;4356;49.068;8.658;2022-12-29T04:13:26;99251.34;;;16.77;40.35
8637;BME280;4356;49.068;8.658;2022-12-29T04:15:51;99243.06;;;16.72;40.19
8637;BME280;4356;49.068;8.658;2022-12-29T04:18:17;99234.44;;;16.75;40.17
8637;BME280;4356;49.068;8.658;2022-12-29T04:20:44;99236.31;;;16.74;40.33
8637;BME280;4356;49.068;8.658;2022-12-29T04:23:26;99241.31;;;16.77;40.38
8637;BME280;4356;49.068;8.658;2022-12-29T04:25:52;99239.22;;;16.79;40.36
8637;BME280;4356;49.068;8.658;2022-12-29T04:28:17;99245.25;;;16.81;40.35
8637;BME280;4356;49.068;8.658;2022-12-29T04:30:43;99237.03;;;16.70;40.41
8637;BME280;4356;49.068;8.658;2022-12-29T04:33:09;99234.53;;;16.68;40.26
8637;BME280;4356;49.068;8.658;2022-12-29T04:35:35;99235.16;;;16.70;40.49
8637;BME280;4356;49.068;8.658;2022-12-29T04:38:01;99220.13;;;16.68;40.34
8637;BME280;4356;49.068;8.658;2022-12-29T04:40:27;99224.66;;;16.74;40.42
8637;BME280;4356;49.068;8.658;2022-12-29T04:42:52;99243.56;;;16.80;40.35
8637;BME280;4356;49.068;8.658;2022-12-29T04:45:18;99223.69;;;16.68;40.36
8637;BME280;4356;49.068;8.658;2022-12-29T04:47:44;99239.28;;;16.73;40.40
8637;BME280;4356;49.068;8.658;2022-12-29T04:50:10;99249.69;;;16.76;40.19
8637;BME280;4356;49.068;8.658;2022-12-29T04:52:36;99252.97;;;16.78;40.15
8637;BME280;4356;49.068;8.658;2022-12-29T04:55:01;99245.44;;;16.80;40.32
8637;BME280;4356;49.068;8.658;2022-12-29T04:57:27;99236.28;;;16.81;40.26
8637;BME280;4356;49.068;8.658;2022-12-29T04:59:53;99245.44;;;16.80;40.06
8637;BME280;4356;49.068;8.658;2022-12-29T05:02:18;99250.88;;;16.80;40.37
8637;BME280;4356;49.068;8.658;2022-12-29T05:04:45;99252.78;;;16.79;40.50
8637;BME280;4356;49.068;8.658;2022-12-29T05:07:11;99238.38;;;16.79;40.41
8637;BME280;4356;49.068;8.658;2022-12-29T05:09:37;99243.44;;;16.75;40.55
8637;BME280;4356;49.068;8.658;2022-12-29T05:12:03;99246.75;;;16.77;40.57
8637;BME280;4356;49.068;8.658;2022-12-29T05:14:29;99237.25;;;16.68;40.45
8637;BME280;4356;49.068;8.658;2022-12-29T05:16:54;99268.47;;;16.77;40.82
8637;BME280;4356;49.068;8.658;2022-12-29T05:19:20;99258.22;;;16.79;40.38
8637;BME280;4356;49.068;8.658;2022-12-29T05:21:46;99238.22;;;16.74;40.42
8637;BME280;4356;49.068;8.658;2022-12-29T05:24:11;99235.34;;;16.69;40.67
8637;BME280;4356;49.068;8.658;2022-12-29T05:26:37;99241.56;;;16.76;40.35
8637;BME280;4356;49.068;8.658;2022-12-29T05:29:03;99241.56;;;16.76;40.40
8637;BME280;4356;49.068;8.658;2022-12-29T05:31:29;99258.59;;;16.83;40.51
8637;BME280;4356;49.068;8.658;2022-12-29T05:33:55;99247.13;;;16.81;40.41
8637;BME280;4356;49.068;8.658;2022-12-29T05:36:20;99237.53;;;16.78;40.26
8637;BME280;4356;49.068;8.658;2022-12-29T05:38:46;99240.41;;;16.83;40.51
8637;BME280;4356;49.068;8.658;2022-12-29T05:41:12;99237.69;;;16.83;40.55
8637;BME280;4356;49.068;8.658;2022-12-29T05:43:37;99224.44;;;16.75;40.73
8637;BME280;4356;49.068;8.658;2022-12-29T05:46:03;99241.22;;;16.84;40.15
8637;BME280;4356;49.068;8.658;2022-12-29T05:48:29;99245.38;;;16.86;40.54
8637;BME280;4356;49.068;8.658;2022-12-29T05:50:55;99243.09;;;16.83;40.20
8637;BME280;4356;49.068;8.658;2022-12-29T05:53:21;99261.69;;;16.86;40.37
8637;BME280;4356;49.068;8.658;2022-12-29T05:55:47;99254.56;;;16.85;40.39
8637;BME280;4356;49.068;8.658;2022-12-29T05:58:13;99261.69;;;16.86;40.41
8637;BME280;4356;49.068;8.658;2022-12-29T06:00:39;99254.94;;;16.89;40.47
8637;BME280;4356;49.068;8.658;2022-12-29T06:03:04;99247.72;;;16.83;40.17
8637;BME280;4356;49.068;8.658;2022-12-29T06:05:30;99251.25;;;16.83;40.44
8637;BME280;4356;49.068;8.658;2022-12-29T06:07:55;99222.56;;;16.76;40.43
8637;BME280;4356;49.068;8.658;2022-12-29T06:10:21;99224.59;;;16.80;40.23
8637;BME280;4356;49.068;8.658;2022-12-29T06:12:47;99232.63;;;16.87;40.10
8637;BME280;4356;49.068;8.658;2022-12-29T06:15:13;99234.44;;;16.93;40.13
8637;BME280;4356;49.068;8.658;2022-12-29T06:17:39;99227.00;;;16.88;40.09
8637;BME280;4356;49.068;8.658;2022-12-29T06:20:06;99229.25;;;16.91;40.41
8637;BME280;4356;49.068;8.658;2022-12-29T06:22:32;99227.97;;;16.94;40.28
8637;BME280;4356;49.068;8.658;2022-12-29T06:24:58;99224.88;;;16.90;40.42
8637;BME280;4356;49.068;8.658;2022-12-29T06:27:24;99224.19;;;16.95;40.37
8637;BME280;4356;49.068;8.658;2022-12-29T06:29:50;99225.63;;;16.97;40.23
8637;BME280;4356;49.068;8.658;2022-12-29T06:32:16;99232.69;;;16.98;39.98
8637;BME280;4356;49.068;8.658;2022-12-29T06:34:41;99211.47;;;16.95;40.20
8637;BME280;4356;49.068;8.658;2022-12-29T06:37:07;99227.66;;;17.02;40.14
8637;BME280;4356;49.068;8.658;2022-12-29T06:39:33;99221.38;;;17.01;40.19
8637;BME280;4356;49.068;8.658;2022-12-29T06:41:58;99210.16;;;16.98;40.09
8637;BME280;4356;49.068;8.658;2022-12-29T06:44:24;99210.53;;;17.01;39.82
8637;BME280;4356;49.068;8.658;2022-12-29T06:46:50;99202.19;;;17.03;39.93
8637;BME280;4356;49.068;8.658;2022-12-29T06:49:16;99213.84;;;17.03;39.89
8637;BME280;4356;49.068;8.658;2022-12-29T06:51:42;99200.13;;;16.98;39.83
8637;BME280;4356;49.068;8.658;2022-12-29T06:54:08;99201.25;;;17.09;40.22
8637;BME280;4356;49.068;8.658;2022-12-29T06:56:33;99180.09;;;16.99;39.97
8637;BME280;4356;49.068;8.658;2022-12-29T06:58:59;99199.13;;;17.11;40.04
8637;BME280;4356;49.068;8.658;2022-12-29T07:01:27;99205.16;;;17.13;39.78
8637;BME280;4356;49.068;8.658;2022-12-29T07:03:53;99190.16;;;17.10;39.84
8637;BME280;4356;49.068;8.658;2022-12-29T07:06:19;99197.00;;;17.13;39.86
8637;BME280;4356;49.068;8.658;2022-12-29T07:08:44;99202.44;;;17.13;39.89
8637;BME280;4356;49.068;8.658;2022-12-29T07:11:10;99211.56;;;17.18;39.75
8637;BME280;4356;49.068;8.658;2022-12-29T07:13:36;99210.72;;;17.18;39.76
8637;BME280;4356;49.068;8.658;2022-12-29T07:16:06;99206.97;;;17.19;39.79
8637;BME280;4356;49.068;8.658;2022-12-29T07:18:32;99205.91;;;17.20;39.82
8637;BME280;4356;49.068;8.658;2022-12-29T07:20:58;99213.56;;;17.23;39.49
8637;BME280;4356;49.068;8.658;2022-12-29T07:23:24;99230.94;;;17.22;39.49
8637;BME280;4356;49.068;8.658;2022-12-29T07:25:49;99221.34;;;17.19;39.77
8637;BME280;4356;49.068;8.658;2022-12-29T07:28:15;99214.88;;;17.20;39.88
8637;BME280;4356;49.068;8.658;2022-12-29T07:30:41;99219.00;;;17.23;39.84
8637;BME280;4356;49.068;8.658;2022-12-29T07:33:06;99226.94;;;17.24;39.68
8637;BME280;4356;49.068;8.658;2022-12-29T07:35:34;99224.66;;;17.21;39.91
8637;BME280;4356;49.068;8.658;2022-12-29T07:38:00;99217.13;;;17.23;39.64
8637;BME280;4356;49.068;8.658;2022-12-29T07:40:25;99219.84;;;17.23;39.78
8637;BME280;4356;49.068;8.658;2022-12-29T07:42:51;99231.91;;;17.27;39.86
8637;BME280;4356;49.068;8.658;2022-12-29T07:45:16;99241.13;;;17.26;39.76
8637;BME280;4356;49.068;8.658;2022-12-29T07:47:42;99239.22;;;17.27;39.59
8637;BME280;4356;49.068;8.658;2022-12-29T07:50:08;99238.97;;;17.28;39.58
8637;BME280;4356;49.068;8.658;2022-12-29T07:52:33;99226.25;;;17.29;39.59
8637;BME280;4356;49.068;8.658;2022-12-29T07:54:59;99235.00;;;17.31;39.67
8637;BME280;4356;49.068;8.658;2022-12-29T07:57:25;99234.16;;;17.30;39.58
8637;BME280;4356;49.068;8.658;2022-12-29T07:59:50;99230.84;;;17.28;39.70
8637;BME280;4356;49.068;8.658;2022-12-29T08:02:16;99246.91;;;17.30;39.49
8637;BME280;4356;49.068;8.658;2022-12-29T08:04:42;99246.69;;;17.31;39.68
8637;BME280;4356;49.068;8.658;2022-12-29T08:07:07;99252.72;;;17.33;39.32
8637;BME280;4356;49.068;8.658;2022-12-29T08:09:33;99255.44;;;17.33;39.39
8637;BME280;4356;49.068;8.658;2022-12-29T08:11:59;99240.41;;;17.31;39.56
8637;BME280;4356;49.068;8.658;2022-12-29T08:14:25;99250.22;;;17.32;39.44
8637;BME280;4356;49.068;8.658;2022-12-29T08:16:51;99255.63;;;17.32;39.67
8637;BME280;4356;49.068;8.658;2022-12-29T08:19:16;99249.63;;;17.30;39.51
8637;BME280;4356;49.068;8.658;2022-12-29T08:21:42;99254.00;;;17.31;39.44
8637;BME280;4356;49.068;8.658;2022-12-29T08:24:09;99248.78;;;17.29;39.66
8637;BME280;4356;49.068;8.658;2022-12-29T08:26:35;99268.78;;;17.35;39.58
8637;BME280;4356;49.068;8.658;2022-12-29T08:29:00;99264.13;;;17.24;39.73
8637;BME280;4356;49.068;8.658;2022-12-29T08:31:26;99286.94;;;17.34;39.57
8637;BME280;4356;49.068;8.658;2022-12-29T08:33:52;99287.78;;;17.35;39.31
8637;BME280;4356;49.068;8.658;2022-12-29T08:36:17;99276.09;;;17.34;39.60
8637;BME280;4356;49.068;8.658;2022-12-29T08:38:43;99299.03;;;17.38;39.33
8637;BME280;4356;49.068;8.658;2022-12-29T08:41:09;99283.25;;;17.29;39.23
8637;BME280;4356;49.068;8.658;2022-12-29T08:43:34;99288.47;;;17.30;39.25
8637;BME280;4356;49.068;8.658;2022-12-29T08:46:00;99284.09;;;17.29;39.44
8637;BME280;4356;49.068;8.658;2022-12-29T08:48:26;99298.66;;;17.35;39.38
8637;BME280;4356;49.068;8.658;2022-12-29T08:50:52;99300.66;;;17.39;39.50
8637;BME280;4356;49.068;8.658;2022-12-29T08:53:18;99306.09;;;17.39;39.16
8637;BME280;4356;49.068;8.658;2022-12-29T08:55:54;99310.03;;;17.43;39.29
8637;BME280;4356;49.068;8.658;2022-12-29T08:58:20;99303.56;;;17.44;39.28
8637;BME280;4356;49.068;8.658;2022-12-29T09:00:45;99313.81;;;17.42;39.63
8637;BME280;4356;49.068;8.658;2022-12-29T09:03:11;99310.63;;;17.45;39.54
8637;BME280;4356;49.068;8.658;2022-12-29T09:05:37;99316.69;;;17.48;39.44
8637;BME280;4356;49.068;8.658;2022-12-29T09:08:03;99305.19;;;17.45;39.49
8637;BME280;4356;49.068;8.658;2022-12-29T09:10:29;99317.69;;;17.46;39.11
8637;BME280;4356;49.068;8.658;2022-12-29T09:12:55;99311.53;;;17.39;39.23
8637;BME280;4356;49.068;8.658;2022-12-29T09:15:21;99323.56;;;17.50;39.02
8637;BME280;4356;49.068;8.658;2022-12-29T09:17:47;99334.63;;;17.48;39.23
8637;BME280;4356;49.068;8.658;2022-12-29T09:20:14;99322.25;;;17.53;39.64
8637;BME280;4356;49.068;8.658;2022-12-29T09:22:41;99325.44;;;17.50;39.43
8637;BME280;4356;49.068;8.658;2022-12-29T09:25:07;99315.84;;;17.47;39.24
8637;BME280;4356;49.068;8.658;2022-12-29T09:27:35;99322.25;;;17.53;39.23
8637;BME280;4356;49.068;8.658;2022-12-29T09:30:01;99309.41;;;17.41;39.25
8637;BME280;4356;49.068;8.658;2022-12-29T09:32:28;99346.72;;;17.53;39.53
8637;BME280;4356;49.068;8.658;2022-12-29T09:34:55;99344.22;;;17.51;39.29
8637;BME280;4356;49.068;8.658;2022-12-29T09:37:20;99324.16;;;17.52;39.50
8637;BME280;4356;49.068;8.658;2022-12-29T09:39:46;99317.94;;;17.45;39.47
8637;BME280;4356;49.068;8.658;2022-12-29T09:47:38;99343.63;;;17.49;39.45
8637;BME280;4356;49.068;8.658;2022-12-29T09:50:20;99331.28;;;17.46;39.69
8637;BME280;4356;49.068;8.658;2022-12-29T09:55:39;99343.63;;;17.49;39.46
8637;BME280;4356;49.068;8.658;2022-12-29T09:58:13;99354.88;;;17.53;39.76
8637;BME280;4356;49.068;8.658;2022-12-29T10:00:50;99359.31;;;17.47;39.55
8637;BME280;4356;49.068;8.658;2022-12-29T10:03:23;99373.66;;;17.54;39.89
8637;BME280;4356;49.068;8.658;2022-12-29T10:14:32;99366.34;;;17.55;39.70
8637;BME280;4356;49.068;8.658;2022-12-29T10:24:55;99376.72;;;17.58;39.59
8637;BME280;4356;49.068;8.658;2022-12-29T10:27:22;99380.06;;;17.60;39.96
8637;BME280;4356;49.068;8.658;2022-12-29T10:29:55;99378.78;;;17.62;39.87
8637;BME280;4356;49.068;8.658;2022-12-29T10:32:57;99368.50;;;17.64;40.45
8637;BME280;4356;49.068;8.658;2022-12-29T10:35:25;99378.31;;;17.65;40.17
8637;BME280;4356;49.068;8.658;2022-12-29T10:38:28;99377.47;;;17.65;40.81
8637;BME280;4356;49.068;8.658;2022-12-29T10:41:13;99389.56;;;17.69;40.46
8637;BME280;4356;49.068;8.658;2022-12-29T10:43:48;99378.44;;;17.70;40.27
8637;BME280;4356;49.068;8.658;2022-12-29T10:46:21;99374.69;;;17.71;40.30
8637;BME280;4356;49.068;8.658;2022-12-29T10:48:48;99373.84;;;17.71;40.34
8637;BME280;4356;49.068;8.658;2022-12-29T10:51:30;99360.72;;;17.68;40.65
8637;BME280;4356;49.068;8.658;2022-12-29T10:56:54;99359.59;;;17.75;40.63
8637;BME280;4356;49.068;8.658;2022-12-29T10:59:31;99356.88;;;17.75;40.33
8637;BME280;4356;49.068;8.658;2022-12-29T11:07:11;99364.69;;;17.83;40.36
8637;BME280;4356;49.068;8.658;2022-12-29T11:09:38;99368.00;;;17.85;40.41
8637;BME280;4356;49.068;8.658;2022-12-29T11:12:37;99361.53;;;17.86;39.98
8637;BME280;4356;49.068;8.658;2022-12-29T11:15:15;99354.19;;;17.87;40.09
8637;BME280;4356;49.068;8.658;2022-12-29T11:17:47;99355.34;;;17.79;40.09
8637;BME280;4356;49.068;8.658;2022-12-29T11:20:34;99358.66;;;17.81;39.95
8637;BME280;4356;49.068;8.658;2022-12-29T11:23:02;99370.72;;;17.85;39.96
8637;BME280;4356;49.068;8.658;2022-12-29T11:25:28;99375.56;;;17.83;39.90
8637;BME280;4356;49.068;8.658;2022-12-29T11:28:15;99379.13;;;17.84;39.77
8637;BME280;4356;49.068;8.658;2022-12-29T11:30:41;99367.03;;;17.80;40.00
8637;BME280;4356;49.068;8.658;2022-12-29T11:33:09;99364.09;;;17.81;40.14
8637;BME280;4356;49.068;8.658;2022-12-29T11:35:39;99371.19;;;17.82;39.81
8637;BME280;4356;49.068;8.658;2022-12-29T11:38:20;99361.59;;;17.80;40.05
8637;BME280;4356;49.068;8.658;2022-12-29T11:40:46;99366.38;;;17.84;40.03
8637;BME280;4356;49.068;8.658;2022-12-29T11:43:33;99368.00;;;17.85;39.88
8637;BME280;4356;49.068;8.658;2022-12-29T11:46:00;99354.41;;;17.85;39.90
8637;BME280;4356;49.068;8.658;2022-12-29T11:48:32;99369.44;;;17.88;39.71
8637;BME280;4356;49.068;8.658;2022-12-29T11:50:59;99359.00;;;17.85;39.66
8637;BME280;4356;49.068;8.658;2022-12-29T11:53:30;99365.91;;;17.87;40.00
8637;BME280;4356;49.068;8.658;2022-12-29T11:56:14;99364.81;;;17.88;39.97
8637;BME280;4356;49.068;8.658;2022-12-29T11:58:41;99348.97;;;17.85;39.87
8637;BME280;4356;49.068;8.658;2022-12-29T12:01:13;99368.97;;;17.91;40.09
8637;BME280;4356;49.068;8.658;2022-12-29T12:04:02;99367.91;;;17.92;39.79
8637;BME280;4356;49.068;8.658;2022-12-29T12:06:33;99353.13;;;17.88;40.15
8637;BME280;4356;49.068;8.658;2022-12-29T12:09:10;99354.31;;;17.92;39.83
8637;BME280;4356;49.068;8.658;2022-12-29T12:11:42;99339.53;;;17.88;40.00
8637;BME280;4356;49.068;8.658;2022-12-29T12:14:23;99349.09;;;17.90;39.91
8637;BME280;4356;49.068;8.658;2022-12-29T12:16:57;99343.44;;;17.92;39.74
8637;BME280;4356;49.068;8.658;2022-12-29T12:25:19;99334.84;;;17.95;40.16
8637;BME280;4356;49.068;8.658;2022-12-29T12:28:00;99331.66;;;17.98;39.91
8637;BME280;4356;49.068;8.658;2022-12-29T12:30:37;99326.56;;;17.90;39.82
8637;BME280;4356;49.068;8.658;2022-12-29T12:33:22;99325.84;;;17.94;39.80
8637;BME280;4356;49.068;8.658;2022-12-29T12:38:55;99327.13;;;17.92;39.88
8637;BME280;4356;49.068;8.658;2022-12-29T12:52:51;99330.00;;;17.97;39.67
8637;BME280;4356;49.068;8.658;2022-12-29T13:01:28;99330.25;;;17.95;39.94
8637;BME280;4356;49.068;8.658;2022-12-29T13:09:48;99328.56;;;17.94;40.13
8637;BME280;4356;49.068;8.658;2022-12-29T13:12:44;99323.50;;;17.98;39.75
8637;BME280;4356;49.068;8.658;2022-12-29T13:15:37;99311.41;;;17.94;40.02
8637;BME280;4356;49.068;8.658;2022-12-29T13:18:25;99307.88;;;17.93;40.08
8637;BME280;4356;49.068;8.658;2022-12-29T13:21:07;99305.66;;;18.02;40.29
8637;BME280;4356;49.068;8.658;2022-12-29T13:23:55;99288.25;;;17.91;40.23
8637;BME280;4356;49.068;8.658;2022-12-29T13:26:49;99311.34;;;18.00;40.24
8637;BME280;4356;49.068;8.658;2022-12-29T13:29:38;99316.06;;;18.05;39.97
8637;BME280;4356;49.068;8.658;2022-12-29T13:32:41;99316.66;;;18.07;39.89
8637;BME280;4356;49.068;8.658;2022-12-29T13:35:25;99310.97;;;18.08;40.11
8637;BME280;4356;49.068;8.658;2022-12-29T13:40:52;99319.13;;;18.08;40.04
8637;BME280;4356;49.068;8.658;2022-12-29T13:43:22;99314.06;;;18.00;39.73
8637;BME280;4356;49.068;8.658;2022-12-29T13:46:12;99332.28;;;18.11;39.80
8637;BME280;4356;49.068;8.658;2022-12-29T13:48:52;99318.19;;;18.03;39.81
8637;BME280;4356;49.068;8.658;2022-12-29T13:51:21;99334.41;;;18.09;39.89
8637;BME280;4356;49.068;8.658;2022-12-29T13:54:13;99352.13;;;18.12;39.99
8637;BME280;4356;49.068;8.658;2022-12-29T13:59:43;99352.38;;;18.10;40.07
8637;BME280;4356;49.068;8.658;2022-12-29T14:02:24;99357.00;;;18.10;40.38
8637;BME280;4356;49.068;8.658;2022-12-29T14:04:57;99360.75;;;18.09;40.21
8637;BME280;4356;49.068;8.658;2022-12-29T14:07:23;99363.72;;;18.07;40.27
8637;BME280;4356;49.068;8.658;2022-12-29T14:09:51;99367.63;;;18.11;40.63
8637;BME280;4356;49.068;8.658;2022-12-29T14:17:34;99372.84;;;18.13;40.48
8637;BME280;4356;49.068;8.658;2022-12-29T14:20:00;99350.81;;;18.03;39.94
8637;BME280;4356;49.068;8.658;2022-12-29T14:22:28;99365.16;;;18.10;40.38
8637;BME280;4356;49.068;8.658;2022-12-29T14:24:54;99365.72;;;18.12;40.71
8637;BME280;4356;49.068;8.658;2022-12-29T14:29:50;99367.41;;;18.13;40.29
8637;BME280;4356;49.068;8.658;2022-12-29T14:37:46;99377.31;;;18.07;40.57
8637;BME280;4356;49.068;8.658;2022-12-29T14:40:23;99374.13;;;18.10;40.77
8637;BME280;4356;49.068;8.658;2022-12-29T14:42:52;99389.75;;;18.15;40.51
8637;BME280;4356;49.068;8.658;2022-12-29T14:47:49;99396.00;;;18.15;40.65
8637;BME280;4356;49.068;8.658;2022-12-29T14:50:18;99386.06;;;18.09;40.83
8637;BME280;4356;49.068;8.658;2022-12-29T14:52:59;99383.34;;;18.09;40.91
8637;BME280;4356;49.068;8.658;2022-12-29T14:55:40;99394.22;;;18.09;40.91
8637;BME280;4356;49.068;8.658;2022-12-29T14:58:40;99399.91;;;18.08;40.49
8637;BME280;4356;49.068;8.658;2022-12-29T15:01:22;99408.06;;;18.08;40.89
8637;BME280;4356;49.068;8.658;2022-12-29T15:03:53;99402.16;;;18.11;40.81
8637;BME280;4356;49.068;8.658;2022-12-29T15:06:22;99415.75;;;18.11;40.58
8637;BME280;4356;49.068;8.658;2022-12-29T15:08:54;99411.38;;;18.10;40.96
8637;BME280;4356;49.068;8.658;2022-12-29T15:11:42;99405.66;;;18.00;40.82
8637;BME280;4356;49.068;8.658;2022-12-29T15:16:53;99417.03;;;18.08;40.66
8637;BME280;4356;49.068;8.658;2022-12-29T15:19:24;99408.25;;;18.06;41.10
8637;BME280;4356;49.068;8.658;2022-12-29T15:21:50;99415.38;;;18.07;41.26
8637;BME280;4356;49.068;8.658;2022-12-29T15:24:17;99416.91;;;18.03;41.01
8637;BME280;4356;49.068;8.658;2022-12-29T15:26:52;99421.88;;;18.06;41.18
8637;BME280;4356;49.068;8.658;2022-12-29T15:29:40;99420.44;;;18.04;41.39
8637;BME280;4356;49.068;8.658;2022-12-29T15:32:18;99434.41;;;18.07;40.88
8637;BME280;4356;49.068;8.658;2022-12-29T15:34:50;99423.53;;;18.07;40.85
8637;BME280;4356;49.068;8.658;2022-12-29T15:37:25;99412.66;;;18.07;40.87
8637;BME280;4356;49.068;8.658;2022-12-29T15:39:52;99393.81;;;17.94;40.69
8637;BME280;4356;49.068;8.658;2022-12-29T15:42:56;99409.94;;;18.07;40.90
8637;BME280;4356;49.068;8.658;2022-12-29T15:45:14;99417.25;;;18.07;40.95
8637;BME280;4356;49.068;8.658;2022-12-29T15:47:42;99418.09;;;18.07;40.83
8637;BME280;4356;49.068;8.658;2022-12-29T15:50:30;99415.38;;;18.07;41.20